Time;durP1;ratioP1;P1;durP2;ratioP2;P2;SDS_P1;SDS_P2;PMS_P1;PMS_P2;Temp;Humidity;BMP_temperature;BMP_pressure;BME280_temperature;BME280_humidity;BME280_pressure;Samples;Min_cycle;Max_cycle;Signal;HPM_P1;HPM_P2
2023/01/08 00:00:45;;;;;;;;;43.67;36.33;;;;;;;;5010234;28;11548;-67
2023/01/08 00:03:11;;;;;;;;;45.33;40.00;;;;;;;;5010321;28;8821;-67
2023/01/08 00:05:36;;;;;;;;;45.67;41.33;;;;;;;;5010360;28;8806;-68
2023/01/08 00:08:02;;;;;;;;;45.25;39.75;;;;;;;;5010129;28;8801;-68
2023/01/08 00:10:27;;;;;;;;;44.25;38.25;;;;;;;;4992542;28;8895;-68
2023/01/08 00:12:54;;;;;;;;;31.50;27.75;;;;;;;;5010035;28;8810;-68
2023/01/08 00:15:19;;;;;;;;;47.00;41.67;;;;;;;;5009962;28;8876;-69
2023/01/08 00:17:44;;;;;;;;;37.50;29.75;;;;;;;;5008634;28;11579;-68
2023/01/08 00:20:10;;;;;;;;;41.25;37.50;;;;;;;;5009967;28;8806;-68
2023/01/08 00:22:35;;;;;;;;;38.25;34.00;;;;;;;;5009791;28;9521;-68
2023/01/08 00:25:00;;;;;;;;;48.00;37.75;;;;;;;;5009559;28;8821;-68
2023/01/08 00:27:26;;;;;;;;;38.75;35.00;;;;;;;;5009805;28;8791;-68
2023/01/08 00:29:51;;;;;;;;;37.75;35.00;;;;;;;;5009763;28;8810;-68
2023/01/08 00:32:17;;;;;;;;;32.25;29.75;;;;;;;;5009649;28;8811;-68
2023/01/08 00:34:42;;;;;;;;;30.75;27.25;;;;;;;;5010756;28;9529;-68
2023/01/08 00:37:07;;;;;;;;;29.50;25.75;;;;;;;;5010136;28;8848;-68
2023/01/08 00:39:33;;;;;;;;;31.25;26.50;;;;;;;;5009782;28;8817;-68
2023/01/08 00:41:58;;;;;;;;;31.25;26.75;;;;;;;;5009796;28;8818;-68
2023/01/08 00:44:23;;;;;;;;;27.25;24.00;;;;;;;;5017561;28;8836;-68
2023/01/08 00:46:48;;;;;;;;;29.25;25.75;;;;;;;;5029547;28;8819;-68
2023/01/08 00:49:14;;;;;;;;;23.00;21.25;;;;;;;;5029362;28;8784;-69
2023/01/08 00:51:39;;;;;;;;;15.25;12.75;;;;;;;;5029172;28;8883;-69
2023/01/08 00:54:04;;;;;;;;;19.00;18.00;;;;;;;;5029563;28;8799;-68
2023/01/08 00:56:30;;;;;;;;;21.50;17.00;;;;;;;;5029305;28;8842;-67
2023/01/08 00:58:55;;;;;;;;;25.25;20.75;;;;;;;;5029708;28;9550;-69
2023/01/08 01:01:21;;;;;;;;;21.75;19.50;;;;;;;;5029535;28;9478;-68
2023/01/08 01:03:46;;;;;;;;;17.00;15.00;;;;;;;;5029410;28;9553;-68
2023/01/08 01:06:12;;;;;;;;;20.75;17.00;;;;;;;;5029469;28;8818;-68
2023/01/08 01:08:37;;;;;;;;;21.00;16.25;;;;;;;;5029362;28;8824;-68
2023/01/08 01:11:07;;;;;;;;;19.00;16.75;;;;;;;;5029144;28;11550;-68
2023/01/08 01:13:32;;;;;;;;;29.50;19.75;;;;;;;;5029406;28;8788;-68
2023/01/08 01:15:59;;;;;;;;;20.00;17.00;;;;;;;;5026018;28;12393;-68
2023/01/08 01:18:24;;;;;;;;;20.75;18.25;;;;;;;;5029453;28;8792;-68
2023/01/08 01:20:50;;;;;;;;;19.00;17.50;;;;;;;;5029371;28;11539;-68
2023/01/08 01:23:15;;;;;;;;;26.25;24.25;;;;;;;;5029252;28;8931;-67
2023/01/08 01:25:41;;;;;;;;;19.00;18.75;;;;;;;;5029134;28;8788;-68
2023/01/08 01:28:06;;;;;;;;;29.25;24.00;;;;;;;;5029253;28;8816;-68
2023/01/08 01:30:31;;;;;;;;;33.00;25.25;;;;;;;;5029157;28;8787;-68
2023/01/08 01:32:57;;;;;;;;;30.50;26.00;;;;;;;;5029215;28;8808;-67
2023/01/08 01:35:22;;;;;;;;;28.75;26.00;;;;;;;;5029097;28;8831;-68
2023/01/08 01:37:47;;;;;;;;;26.25;26.25;;;;;;;;5030890;28;8781;-67
2023/01/08 01:40:13;;;;;;;;;25.75;24.00;;;;;;;;5033010;28;8796;-68
2023/01/08 01:42:38;;;;;;;;;26.75;26.75;;;;;;;;5032684;28;8815;-67
2023/01/08 01:45:15;;;;;;;;;31.00;28.50;;;;;;;;5032888;28;8800;-68
2023/01/08 01:47:41;;;;;;;;;27.00;25.00;;;;;;;;5032819;28;8818;-67
2023/01/08 01:50:21;;;;;;;;;26.75;20.50;;;;;;;;5032588;28;11528;-68
2023/01/08 01:52:55;;;;;;;;;23.75;19.25;;;;;;;;5032802;28;8888;-67
2023/01/08 01:55:21;;;;;;;;;32.00;27.50;;;;;;;;5032672;28;12293;-67
2023/01/08 01:58:02;;;;;;;;;28.50;25.00;;;;;;;;5032503;28;11606;-68
2023/01/08 02:00:28;;;;;;;;;27.25;26.75;;;;;;;;5033053;28;8800;-68
2023/01/08 02:02:53;;;;;;;;;27.00;25.00;;;;;;;;5032508;28;11548;-68
2023/01/08 02:05:19;;;;;;;;;32.50;27.75;;;;;;;;5032892;28;8838;-67
2023/01/08 02:07:44;;;;;;;;;31.25;26.00;;;;;;;;5032379;28;8807;-67
2023/01/08 02:10:13;;;;;;;;;24.75;24.25;;;;;;;;5032508;28;8772;-68
2023/01/08 02:12:59;;;;;;;;;31.50;25.50;;;;;;;;5032430;28;8823;-69
2023/01/08 02:15:27;;;;;;;;;26.25;23.00;;;;;;;;5032359;28;11692;-67
2023/01/08 02:18:02;;;;;;;;;35.00;24.00;;;;;;;;5032205;28;11534;-67
2023/01/08 02:20:38;;;;;;;;;30.25;26.50;;;;;;;;5032187;28;11537;-68
2023/01/08 02:23:17;;;;;;;;;24.50;20.50;;;;;;;;5032044;28;11553;-68
2023/01/08 02:26:01;;;;;;;;;24.25;21.25;;;;;;;;5032075;28;11581;-67
2023/01/08 02:28:27;;;;;;;;;25.00;20.50;;;;;;;;5032027;28;11537;-68
2023/01/08 07:24:20;;;;;;;;;17.00;16.50;;;;;;;;5111902;27;13588;-71
2023/01/08 07:26:45;;;;;;;;;18.75;15.75;;;;;;;;5117249;27;11546;-71
2023/01/08 07:32:45;;;;;;;;;17.00;14.50;;;;;;;;5066257;28;13564;-76
2023/01/08 07:35:11;;;;;;;;;17.25;16.00;;;;;;;;5056450;28;11618;-75
2023/01/08 07:37:39;;;;;;;;;16.75;15.00;;;;;;;;5055577;28;8852;-75
2023/01/08 07:40:05;;;;;;;;;22.25;18.50;;;;;;;;5055546;28;9393;-74
2023/01/08 07:42:30;;;;;;;;;21.25;18.75;;;;;;;;5056842;28;11509;-74
2023/01/08 07:44:55;;;;;;;;;15.75;13.00;;;;;;;;5056663;28;8924;-70
2023/01/08 07:47:21;;;;;;;;;15.75;15.00;;;;;;;;5055594;28;8820;-69
2023/01/08 07:49:46;;;;;;;;;13.75;13.75;;;;;;;;5056122;28;8952;-69
2023/01/08 07:52:15;;;;;;;;;18.75;15.25;;;;;;;;5053939;28;8827;-69
2023/01/08 07:54:40;;;;;;;;;17.25;13.25;;;;;;;;5053865;28;8829;-69
2023/01/08 10:14:48;;;;;;;;;7.00;3.00;;;;;;;;5080383;27;13405;-66
2023/01/08 10:17:23;;;;;;;;;4.25;4.25;;;;;;;;5012842;28;11458;-67
2023/01/08 10:19:48;;;;;;;;;4.25;4.25;;;;;;;;5046057;28;11457;-68
2023/01/08 10:22:18;;;;;;;;;8.75;7.00;;;;;;;;5046083;28;12177;-68
2023/01/08 10:24:44;;;;;;;;;4.50;4.50;;;;;;;;5045719;28;8849;-68
2023/01/08 10:27:20;;;;;;;;;8.00;5.25;;;;;;;;5044308;28;11528;-69
2023/01/08 10:29:45;;;;;;;;;5.00;5.00;;;;;;;;5043466;28;8828;-71
2023/01/08 10:32:15;;;;;;;;;4.50;4.50;;;;;;;;5042098;28;11469;-71
2023/01/08 10:34:42;;;;;;;;;12.00;5.75;;;;;;;;5049433;28;8825;-69
2023/01/08 10:37:25;;;;;;;;;4.75;4.75;;;;;;;;5064203;28;11014;-67
2023/01/08 10:39:52;;;;;;;;;7.00;5.00;;;;;;;;5064830;28;11063;-68
2023/01/08 10:42:18;;;;;;;;;4.50;3.00;;;;;;;;5065522;28;11014;-68
2023/01/08 10:45:03;;;;;;;;;2.00;2.00;;;;;;;;5064169;28;11066;-69
2023/01/08 10:47:32;;;;;;;;;5.25;5.25;;;;;;;;5065032;28;10919;-69
2023/01/08 10:49:59;;;;;;;;;10.50;5.25;;;;;;;;5065633;28;11016;-69
2023/01/08 10:52:25;;;;;;;;;9.00;3.00;;;;;;;;5065618;28;11089;-69
2023/01/08 10:54:51;;;;;;;;;6.50;6.50;;;;;;;;5065101;28;11065;-69
2023/01/08 10:57:27;;;;;;;;;8.25;6.50;;;;;;;;5059851;28;11099;-69
2023/01/08 10:59:53;;;;;;;;;7.75;7.75;;;;;;;;5045895;28;8828;-67
2023/01/08 11:02:37;;;;;;;;;6.25;6.25;;;;;;;;5045072;28;11862;-68
2023/01/08 11:05:04;;;;;;;;;7.50;7.00;;;;;;;;5025524;28;8790;-70
2023/01/08 11:07:31;;;;;;;;;7.00;7.00;;;;;;;;5025007;28;10921;-68
2023/01/08 11:09:56;;;;;;;;;8.25;7.00;;;;;;;;5025215;28;11003;-67
2023/01/08 11:12:30;;;;;;;;;8.00;6.25;;;;;;;;5057527;28;11005;-67
2023/01/08 11:14:56;;;;;;;;;5.00;4.50;;;;;;;;5064698;28;8796;-66
2023/01/08 11:17:25;;;;;;;;;5.00;3.00;;;;;;;;5063714;28;11042;-68
2023/01/08 11:19:52;;;;;;;;;8.50;5.00;;;;;;;;5064611;28;8809;-67
2023/01/08 11:22:17;;;;;;;;;5.50;5.50;;;;;;;;5064624;28;10986;-67
2023/01/08 11:24:43;;;;;;;;;6.00;6.00;;;;;;;;5057709;28;11817;-68
2023/01/08 11:27:11;;;;;;;;;8.25;7.25;;;;;;;;5051217;28;8805;-67
2023/01/08 11:29:43;;;;;;;;;7.50;5.50;;;;;;;;5051420;28;8837;-68
2023/01/08 11:32:08;;;;;;;;;7.50;6.00;;;;;;;;5050769;28;11184;-69
2023/01/08 11:34:38;;;;;;;;;8.00;8.00;;;;;;;;5045049;28;12241;-67
2023/01/08 11:37:23;;;;;;;;;11.00;9.00;;;;;;;;5051522;28;8812;-70
2023/01/08 11:39:50;;;;;;;;;10.50;7.00;;;;;;;;5050756;28;11476;-68
2023/01/08 11:42:23;;;;;;;;;6.25;6.00;;;;;;;;5051412;28;11430;-68
2023/01/08 11:44:48;;;;;;;;;7.00;6.00;;;;;;;;5051308;28;11443;-67
2023/01/08 11:47:24;;;;;;;;;11.50;6.75;;;;;;;;5051209;28;11410;-68
2023/01/08 11:49:52;;;;;;;;;6.25;6.00;;;;;;;;5050670;28;8919;-71
2023/01/08 11:52:17;;;;;;;;;9.00;7.50;;;;;;;;5039530;28;11401;-69
2023/01/08 11:54:53;;;;;;;;;9.75;7.00;;;;;;;;5031201;28;11425;-69
2023/01/08 11:57:37;;;;;;;;;6.00;6.00;;;;;;;;5031561;28;8846;-71
2023/01/08 12:00:09;;;;;;;;;10.75;10.00;;;;;;;;5031483;28;11397;-66
2023/01/08 12:02:40;;;;;;;;;12.25;12.00;;;;;;;;5031129;28;12286;-69
2023/01/08 12:05:08;;;;;;;;;13.00;9.00;;;;;;;;5028226;28;11510;-69
2023/01/08 12:07:43;;;;;;;;;11.00;9.75;;;;;;;;5027984;28;11449;-67
2023/01/08 12:10:14;;;;;;;;;14.00;11.00;;;;;;;;5030708;28;11474;-68
2023/01/08 12:12:48;;;;;;;;;7.00;6.00;;;;;;;;5029267;28;11500;-70
2023/01/08 12:15:25;;;;;;;;;9.00;9.00;;;;;;;;5033013;28;11577;-69
2023/01/08 12:17:53;;;;;;;;;9.00;9.00;;;;;;;;5040210;28;11543;-67
2023/01/08 12:20:36;;;;;;;;;10.50;10.50;;;;;;;;5030662;28;12196;-69
2023/01/08 12:23:15;;;;;;;;;9.25;7.50;;;;;;;;5030905;28;11487;-69
2023/01/08 12:26:12;;;;;;;;;9.25;8.00;;;;;;;;5028804;28;11475;-69
2023/01/08 12:28:38;;;;;;;;;8.25;5.75;;;;;;;;4986596;28;11502;-70
2023/01/08 12:31:14;;;;;;;;;8.50;5.25;;;;;;;;4988663;28;11585;-69
2023/01/08 12:34:04;;;;;;;;;7.00;7.00;;;;;;;;4993233;28;8834;-70
2023/01/08 12:36:35;;;;;;;;;6.50;6.50;;;;;;;;4993855;28;11427;-69
2023/01/08 12:39:30;;;;;;;;;9.00;7.00;;;;;;;;4994594;28;12023;-69
2023/01/08 12:42:12;;;;;;;;;8.00;8.00;;;;;;;;4919829;29;11212;-69
2023/01/08 12:44:38;;;;;;;;;9.75;8.00;;;;;;;;4919341;29;11393;-68
2023/01/08 12:47:05;;;;;;;;;10.00;7.00;;;;;;;;4919897;29;11390;-69
2023/01/08 12:49:37;;;;;;;;;9.00;9.00;;;;;;;;4918678;29;11448;-69
2023/01/08 12:52:16;;;;;;;;;8.50;8.50;;;;;;;;4925123;29;11508;-70
2023/01/08 12:54:54;;;;;;;;;10.50;9.00;;;;;;;;4930830;29;12129;-65
2023/01/08 12:57:25;;;;;;;;;6.50;6.50;;;;;;;;4930512;29;11464;-64
2023/01/08 12:59:59;;;;;;;;;11.00;10.25;;;;;;;;4910683;29;11610;-65
2023/01/08 13:02:43;;;;;;;;;9.75;9.75;;;;;;;;4911771;29;11543;-65
2023/01/08 13:05:17;;;;;;;;;11.00;10.75;;;;;;;;4944795;28;11575;-65
2023/01/08 13:07:50;;;;;;;;;13.25;12.50;;;;;;;;4931463;28;11597;-65
2023/01/08 13:10:21;;;;;;;;;15.50;14.00;;;;;;;;4950004;28;11480;-65
2023/01/08 13:12:49;;;;;;;;;17.25;14.75;;;;;;;;4946690;28;11534;-65
2023/01/08 13:15:20;;;;;;;;;14.50;14.50;;;;;;;;4949831;28;11482;-64
2023/01/08 13:17:47;;;;;;;;;18.25;14.75;;;;;;;;4968021;28;11548;-67
2023/01/08 13:20:18;;;;;;;;;17.75;15.00;;;;;;;;5028779;28;12224;-66
2023/01/08 13:22:50;;;;;;;;;19.00;16.50;;;;;;;;5030080;28;11483;-66
2023/01/08 13:25:16;;;;;;;;;22.75;17.25;;;;;;;;5030073;28;11478;-65
2023/01/08 13:27:42;;;;;;;;;16.25;15.25;;;;;;;;5027443;28;12026;-66
2023/01/08 13:30:29;;;;;;;;;17.50;15.50;;;;;;;;5024324;28;8871;-65
2023/01/08 13:32:55;;;;;;;;;22.50;20.00;;;;;;;;5038442;28;11520;-66
2023/01/08 13:35:28;;;;;;;;;18.50;18.00;;;;;;;;5036727;28;11543;-65
2023/01/08 13:38:08;;;;;;;;;20.50;19.00;;;;;;;;5032900;28;8787;-65
2023/01/08 13:40:36;;;;;;;;;24.25;19.25;;;;;;;;5036856;28;11669;-65
2023/01/08 13:43:03;;;;;;;;;23.25;20.00;;;;;;;;5036764;28;11570;-64
2023/01/08 13:45:29;;;;;;;;;18.00;15.00;;;;;;;;5037766;28;11602;-66
2023/01/08 13:47:55;;;;;;;;;22.25;21.25;;;;;;;;5029606;28;11567;-66
2023/01/08 13:50:23;;;;;;;;;23.75;22.00;;;;;;;;5044051;28;11532;-65
2023/01/08 13:52:58;;;;;;;;;15.00;15.00;;;;;;;;5040905;28;8882;-65
2023/01/08 13:55:35;;;;;;;;;22.75;19.00;;;;;;;;5039738;28;11560;-65
2023/01/08 13:58:03;;;;;;;;;25.25;19.75;;;;;;;;5040450;28;11628;-64
2023/01/08 14:00:30;;;;;;;;;20.00;19.75;;;;;;;;5029220;28;11563;-65
2023/01/08 14:02:55;;;;;;;;;25.75;19.25;;;;;;;;5027656;28;12302;-66
2023/01/08 14:05:21;;;;;;;;;18.25;17.75;;;;;;;;5029362;28;11548;-65
2023/01/08 14:07:46;;;;;;;;;22.75;21.00;;;;;;;;5026938;28;8820;-67
2023/01/08 14:10:12;;;;;;;;;20.75;18.75;;;;;;;;5028366;28;8815;-67
2023/01/08 14:12:38;;;;;;;;;16.25;14.00;;;;;;;;5028074;28;8836;-65
2023/01/08 14:15:08;;;;;;;;;22.50;20.00;;;;;;;;5027980;28;8819;-66
2023/01/08 14:17:33;;;;;;;;;22.25;22.00;;;;;;;;5028994;28;11495;-66
2023/01/08 14:19:59;;;;;;;;;21.00;19.00;;;;;;;;5028951;28;11600;-68
2023/01/08 14:22:28;;;;;;;;;22.00;18.75;;;;;;;;5029149;28;8825;-67
2023/01/08 14:24:55;;;;;;;;;19.50;18.25;;;;;;;;5029318;28;8797;-65
2023/01/08 14:27:24;;;;;;;;;13.00;10.75;;;;;;;;5028821;28;11515;-65
2023/01/08 14:29:50;;;;;;;;;11.00;8.00;;;;;;;;5027774;28;11520;-65
2023/01/08 14:32:16;;;;;;;;;6.75;6.50;;;;;;;;5028958;28;11505;-65
2023/01/08 14:34:42;;;;;;;;;6.00;3.25;;;;;;;;5028928;28;9908;-67
2023/01/08 14:37:11;;;;;;;;;2.75;2.75;;;;;;;;5029492;28;11417;-66
2023/01/08 14:39:39;;;;;;;;;4.75;4.00;;;;;;;;5028256;28;8819;-66
2023/01/08 14:45:00;;;;;;;;;1.00;1.00;;;;;;;;5029115;28;11515;-67
2023/01/08 14:47:28;;;;;;;;;3.25;2.00;;;;;;;;5029280;28;11442;-67
2023/01/08 14:49:54;;;;;;;;;1.00;1.00;;;;;;;;5028677;28;11434;-67
2023/01/08 14:52:20;;;;;;;;;2.00;2.00;;;;;;;;5026169;28;12201;-68
2023/01/08 14:54:48;;;;;;;;;1.00;1.00;;;;;;;;5028817;28;8997;-68
2023/01/08 14:57:14;;;;;;;;;5.25;3.00;;;;;;;;5048711;28;8833;-67
2023/01/08 14:59:39;;;;;;;;;2.00;2.00;;;;;;;;5038859;28;11429;-69
2023/01/08 15:02:06;;;;;;;;;2.00;2.00;;;;;;;;5030119;28;8803;-68
2023/01/08 15:04:32;;;;;;;;;4.75;2.00;;;;;;;;5032621;28;9696;-69
2023/01/08 15:07:05;;;;;;;;;1.25;1.25;;;;;;;;5032698;28;11437;-67
2023/01/08 15:09:31;;;;;;;;;4.25;2.50;;;;;;;;5032470;28;8819;-67
2023/01/08 15:12:00;;;;;;;;;2.50;2.00;;;;;;;;5029463;28;11432;-66
2023/01/08 15:14:27;;;;;;;;;2.00;2.00;;;;;;;;5042179;28;11470;-67
2023/01/08 15:16:54;;;;;;;;;5.00;3.00;;;;;;;;5033948;28;11458;-66
2023/01/08 15:19:27;;;;;;;;;2.50;2.00;;;;;;;;5030697;28;11588;-67
2023/01/08 15:21:54;;;;;;;;;3.25;1.75;;;;;;;;5028777;28;11450;-67
2023/01/08 15:24:19;;;;;;;;;1.50;1.00;;;;;;;;5032128;28;11415;-66
2023/01/08 15:26:45;;;;;;;;;2.25;2.00;;;;;;;;5031824;28;11412;-65
2023/01/08 15:29:17;;;;;;;;;4.25;2.00;;;;;;;;5031503;28;8819;-66
2023/01/08 15:31:42;;;;;;;;;4.50;3.00;;;;;;;;5030124;28;8820;-67
2023/01/08 15:34:08;;;;;;;;;2.00;2.00;;;;;;;;5031516;28;11663;-66
2023/01/08 15:36:33;;;;;;;;;5.75;2.00;;;;;;;;5031760;28;8803;-67
2023/01/08 15:38:58;;;;;;;;;4.25;1.00;;;;;;;;5031795;28;8812;-67
2023/01/08 15:44:08;;;;;;;;;3.50;2.00;;;;;;;;5031914;28;9506;-68
2023/01/08 15:46:34;;;;;;;;;2.00;1.50;;;;;;;;5030315;28;11509;-66
2023/01/08 15:48:59;;;;;;;;;5.50;1.00;;;;;;;;5030907;28;11450;-66
2023/01/08 15:51:25;;;;;;;;;0.25;0.25;;;;;;;;5029430;28;9568;-65
2023/01/08 15:53:51;;;;;;;;;2.00;2.00;;;;;;;;5031068;28;8849;-66
2023/01/08 15:56:16;;;;;;;;;4.00;2.00;;;;;;;;5029650;28;8822;-65
2023/01/08 15:58:41;;;;;;;;;1.75;1.00;;;;;;;;5031265;28;8918;-65
2023/01/08 16:01:07;;;;;;;;;2.50;0.00;;;;;;;;5029150;28;8847;-65
2023/01/08 16:03:32;;;;;;;;;1.00;1.00;;;;;;;;5030687;28;8847;-65
2023/01/08 16:05:58;;;;;;;;;4.25;2.00;;;;;;;;5030992;28;8933;-66
2023/01/08 16:08:23;;;;;;;;;2.00;2.00;;;;;;;;5030950;28;8822;-66
2023/01/08 16:10:52;;;;;;;;;1.00;1.00;;;;;;;;5027276;28;8832;-65
2023/01/08 16:13:17;;;;;;;;;2.00;2.00;;;;;;;;5030826;28;8850;-65
2023/01/08 16:15:43;;;;;;;;;3.25;3.25;;;;;;;;5030339;28;11445;-66
2023/01/08 16:18:08;;;;;;;;;2.50;2.50;;;;;;;;5030881;28;8819;-65
2023/01/08 16:20:34;;;;;;;;;3.00;2.75;;;;;;;;5028142;28;8885;-66
2023/01/08 16:22:59;;;;;;;;;5.50;2.50;;;;;;;;5029174;28;8843;-66
2023/01/08 16:25:24;;;;;;;;;6.50;2.25;;;;;;;;5030599;28;8881;-67
2023/01/08 16:27:50;;;;;;;;;6.00;4.50;;;;;;;;5029055;28;8827;-67
2023/01/08 16:30:15;;;;;;;;;3.50;3.50;;;;;;;;5028043;28;8854;-66
2023/01/08 16:32:41;;;;;;;;;2.25;2.00;;;;;;;;5030380;28;9597;-66
2023/01/08 16:35:07;;;;;;;;;3.25;3.25;;;;;;;;5030609;28;8832;-67
2023/01/08 16:37:33;;;;;;;;;2.50;1.75;;;;;;;;5030427;28;11441;-67
2023/01/08 16:39:58;;;;;;;;;2.75;2.00;;;;;;;;5029929;28;9034;-68
2023/01/08 16:42:23;;;;;;;;;2.50;2.50;;;;;;;;5029186;28;8939;-67
2023/01/08 16:44:49;;;;;;;;;2.50;2.50;;;;;;;;5030301;28;8833;-66
2023/01/08 16:47:14;;;;;;;;;3.00;3.00;;;;;;;;5030596;28;8908;-66
2023/01/08 16:49:40;;;;;;;;;6.00;3.25;;;;;;;;5029612;28;8809;-66
2023/01/08 16:52:05;;;;;;;;;3.75;2.00;;;;;;;;5028810;28;8834;-66
2023/01/08 16:54:31;;;;;;;;;5.25;3.00;;;;;;;;5030379;28;8823;-65
2023/01/08 16:56:57;;;;;;;;;2.25;2.25;;;;;;;;5029493;28;8934;-65
2023/01/08 16:59:23;;;;;;;;;5.25;3.75;;;;;;;;5029992;28;11657;-66
2023/01/08 17:01:49;;;;;;;;;14.00;12.00;;;;;;;;5028481;28;8828;-65
2023/01/08 17:04:14;;;;;;;;;3.00;3.00;;;;;;;;5030024;28;11620;-65
2023/01/08 17:06:39;;;;;;;;;6.50;6.00;;;;;;;;5030209;28;8811;-66
2023/01/08 17:09:07;;;;;;;;;9.50;9.00;;;;;;;;5029574;28;10111;-65
2023/01/08 17:11:32;;;;;;;;;3.75;3.00;;;;;;;;5027014;28;8820;-65
2023/01/08 17:13:57;;;;;;;;;5.00;5.00;;;;;;;;5029981;28;11549;-65
2023/01/08 17:16:23;;;;;;;;;8.75;5.50;;;;;;;;5030142;28;8800;-65
2023/01/08 17:18:48;;;;;;;;;13.00;12.75;;;;;;;;5030014;28;9626;-64
2023/01/08 17:21:13;;;;;;;;;7.00;2.00;;;;;;;;5027745;28;8819;-65
2023/01/08 17:23:39;;;;;;;;;5.25;4.00;;;;;;;;5029127;28;8901;-66
2023/01/08 17:26:07;;;;;;;;;2.00;2.00;;;;;;;;5030212;28;8819;-65
2023/01/08 17:28:33;;;;;;;;;6.00;4.75;;;;;;;;5028470;28;8856;-66
2023/01/08 17:31:07;;;;;;;;;2.00;1.00;;;;;;;;5027505;28;11602;-65
2023/01/08 17:33:36;;;;;;;;;2.00;1.00;;;;;;;;5029848;28;12353;-65
2023/01/08 17:36:09;;;;;;;;;4.00;3.00;;;;;;;;5028285;28;11433;-66
2023/01/08 17:38:34;;;;;;;;;4.00;4.00;;;;;;;;5029860;28;11511;-66
2023/01/08 17:41:00;;;;;;;;;3.50;3.50;;;;;;;;5030507;28;11476;-66
2023/01/08 17:43:25;;;;;;;;;2.50;2.50;;;;;;;;5026686;28;9586;-67
2023/01/08 17:45:51;;;;;;;;;3.50;3.00;;;;;;;;5029423;28;11457;-67
2023/01/08 17:48:16;;;;;;;;;5.50;4.00;;;;;;;;5029457;28;8910;-68
2023/01/08 17:50:42;;;;;;;;;4.75;2.00;;;;;;;;5029369;28;8819;-67
2023/01/08 17:53:07;;;;;;;;;5.75;3.50;;;;;;;;5029540;28;8974;-66
2023/01/08 17:55:32;;;;;;;;;4.00;4.00;;;;;;;;5028027;28;8824;-67
2023/01/08 17:57:57;;;;;;;;;4.00;4.00;;;;;;;;5028300;28;8886;-66
2023/01/08 18:00:23;;;;;;;;;8.00;4.00;;;;;;;;5029488;28;8812;-68
2023/01/08 18:02:49;;;;;;;;;6.50;3.50;;;;;;;;5029547;28;8812;-66
2023/01/08 18:05:17;;;;;;;;;2.00;2.00;;;;;;;;5029358;28;11508;-65
2023/01/08 18:07:42;;;;;;;;;2.00;2.00;;;;;;;;5026333;28;8957;-66
2023/01/08 18:10:08;;;;;;;;;4.00;4.00;;;;;;;;5029221;28;11500;-65
2023/01/08 18:12:33;;;;;;;;;3.75;3.00;;;;;;;;5028804;28;8823;-67
2023/01/08 18:14:58;;;;;;;;;4.00;3.50;;;;;;;;5029236;28;8877;-66
2023/01/08 18:17:24;;;;;;;;;5.00;4.00;;;;;;;;5027009;28;8952;-66
2023/01/08 18:19:49;;;;;;;;;5.25;5.25;;;;;;;;5028838;28;8819;-66
2023/01/08 18:22:14;;;;;;;;;3.00;3.00;;;;;;;;5029370;28;8808;-67
2023/01/08 18:24:40;;;;;;;;;6.00;4.50;;;;;;;;5029196;28;8844;-66
2023/01/08 18:27:05;;;;;;;;;3.00;3.00;;;;;;;;5026819;28;9605;-67
2023/01/08 18:29:31;;;;;;;;;3.00;3.00;;;;;;;;5028966;28;8819;-66
2023/01/08 18:31:56;;;;;;;;;5.00;5.00;;;;;;;;5028956;28;8833;-66
2023/01/08 18:34:21;;;;;;;;;7.25;5.00;;;;;;;;5044668;28;8844;-65
2023/01/08 18:36:46;;;;;;;;;5.25;5.25;;;;;;;;5029674;28;8837;-66
2023/01/08 18:39:12;;;;;;;;;7.75;7.00;;;;;;;;5033141;28;8804;-65
2023/01/08 18:44:21;;;;;;;;;7.00;5.00;;;;;;;;5032967;28;8807;-66
2023/01/08 18:46:46;;;;;;;;;5.75;5.75;;;;;;;;5045632;28;11628;-66
2023/01/08 18:49:12;;;;;;;;;1.75;0.00;;;;;;;;5014852;28;8826;-66
2023/01/08 18:51:37;;;;;;;;;8.75;6.50;;;;;;;;5047885;28;8811;-66
2023/01/08 18:54:03;;;;;;;;;12.25;10.75;;;;;;;;5032746;28;8831;-67
2023/01/08 18:56:33;;;;;;;;;7.00;7.00;;;;;;;;5031142;28;8930;-65
2023/01/08 18:58:58;;;;;;;;;7.00;3.00;;;;;;;;5030888;28;11667;-66
2023/01/08 19:01:24;;;;;;;;;14.00;7.75;;;;;;;;5032395;28;11601;-66
2023/01/08 19:03:54;;;;;;;;;6.50;6.50;;;;;;;;5032805;28;8943;-66
2023/01/08 19:06:19;;;;;;;;;7.00;7.00;;;;;;;;5031975;28;8824;-65
2023/01/08 19:08:45;;;;;;;;;9.25;7.25;;;;;;;;5030070;28;11499;-66
2023/01/08 19:11:11;;;;;;;;;13.50;11.25;;;;;;;;5031420;28;8844;-66
2023/01/08 19:13:37;;;;;;;;;9.25;8.00;;;;;;;;5031572;28;8943;-66
2023/01/08 19:16:06;;;;;;;;;13.25;8.75;;;;;;;;5032100;28;12246;-75
2023/01/08 19:18:31;;;;;;;;;13.00;10.50;;;;;;;;5030746;28;8900;-67
2023/01/08 19:20:56;;;;;;;;;22.00;19.25;;;;;;;;5031814;28;11533;-68
2023/01/08 19:23:22;;;;;;;;;32.25;31.25;;;;;;;;5032816;28;8796;-67
2023/01/08 19:25:47;;;;;;;;;13.25;12.25;;;;;;;;5032282;28;8831;-67
2023/01/08 19:28:12;;;;;;;;;11.75;11.00;;;;;;;;5030857;28;8973;-67
2023/01/08 19:30:39;;;;;;;;;11.75;9.50;;;;;;;;5031994;28;8835;-67
2023/01/08 19:33:04;;;;;;;;;6.75;5.50;;;;;;;;5032000;28;8828;-68
2023/01/08 19:35:29;;;;;;;;;9.00;6.75;;;;;;;;5031681;28;11468;-67
2023/01/08 19:37:55;;;;;;;;;8.75;7.00;;;;;;;;5031933;28;8815;-67
2023/01/08 19:40:20;;;;;;;;;7.00;6.00;;;;;;;;5030549;28;8804;-69
2023/01/08 19:45:29;;;;;;;;;8.00;4.00;;;;;;;;5020589;28;9904;-68
2023/01/08 19:47:55;;;;;;;;;5.00;5.00;;;;;;;;5025158;28;11615;-69
2023/01/08 19:50:20;;;;;;;;;6.00;6.00;;;;;;;;5007992;28;8853;-70
2023/01/08 19:52:46;;;;;;;;;7.25;6.00;;;;;;;;4999670;28;8831;-70
2023/01/08 19:55:11;;;;;;;;;6.00;4.00;;;;;;;;5000339;28;9643;-70
2023/01/08 19:57:36;;;;;;;;;4.75;4.75;;;;;;;;5006140;28;8811;-69
2023/01/08 20:00:02;;;;;;;;;4.00;4.00;;;;;;;;5010359;28;8913;-68
2023/01/08 20:02:27;;;;;;;;;7.00;4.00;;;;;;;;5011851;28;8829;-68
2023/01/08 20:04:53;;;;;;;;;3.00;2.75;;;;;;;;4991338;28;8817;-68
2023/01/08 20:07:18;;;;;;;;;3.50;2.50;;;;;;;;5010655;28;10318;-68
2023/01/08 20:09:43;;;;;;;;;3.25;3.25;;;;;;;;5003855;28;8820;-72
2023/01/08 20:12:09;;;;;;;;;6.50;4.00;;;;;;;;4981361;28;8878;-68
2023/01/08 20:14:34;;;;;;;;;3.25;3.25;;;;;;;;4981520;28;9662;-73
2023/01/08 20:17:00;;;;;;;;;7.75;6.00;;;;;;;;4981995;28;8788;-74
2023/01/08 20:19:29;;;;;;;;;2.00;2.00;;;;;;;;4983012;28;8817;-68
2023/01/08 20:21:56;;;;;;;;;3.75;2.75;;;;;;;;4981336;28;8894;-69
2023/01/08 20:24:21;;;;;;;;;3.00;2.75;;;;;;;;4983062;28;11699;-69
2023/01/08 20:26:46;;;;;;;;;4.00;2.50;;;;;;;;4982649;28;11467;-69
2023/01/08 20:29:12;;;;;;;;;4.25;3.00;;;;;;;;4981365;28;8796;-71
2023/01/08 20:31:38;;;;;;;;;6.00;3.50;;;;;;;;4982439;28;8820;-71
2023/01/08 20:34:05;;;;;;;;;4.50;3.50;;;;;;;;4978371;28;11532;-70
2023/01/08 20:36:32;;;;;;;;;1.25;1.00;;;;;;;;4981476;28;8812;-69
2023/01/08 20:38:58;;;;;;;;;2.00;2.00;;;;;;;;4987277;28;12184;-69
2023/01/08 20:41:25;;;;;;;;;1.25;1.25;;;;;;;;4981608;28;12257;-70
2023/01/08 20:43:51;;;;;;;;;2.50;2.00;;;;;;;;4981294;28;11454;-71
2023/01/08 20:46:16;;;;;;;;;1.75;1.75;;;;;;;;4980414;28;11550;-73
2023/01/08 20:48:42;;;;;;;;;2.00;2.00;;;;;;;;4981743;28;11514;-72
2023/01/08 20:51:07;;;;;;;;;2.00;2.00;;;;;;;;4981920;28;8820;-71
2023/01/08 20:53:34;;;;;;;;;2.75;2.75;;;;;;;;4980657;28;8875;-70
2023/01/08 20:56:06;;;;;;;;;2.00;2.00;;;;;;;;4981636;28;8851;-70
2023/01/08 20:58:32;;;;;;;;;1.00;1.00;;;;;;;;4978020;28;11555;-69
2023/01/08 21:01:12;;;;;;;;;3.50;1.00;;;;;;;;4988681;28;11581;-72
2023/01/08 21:03:37;;;;;;;;;2.00;2.00;;;;;;;;4980316;28;8919;-71
2023/01/08 21:06:07;;;;;;;;;5.00;3.00;;;;;;;;4982339;28;11514;-71
2023/01/08 21:08:32;;;;;;;;;1.50;1.50;;;;;;;;4984351;28;8817;-70
2023/01/08 21:10:58;;;;;;;;;5.00;3.00;;;;;;;;4981561;28;11518;-70
2023/01/08 21:13:23;;;;;;;;;2.00;2.00;;;;;;;;4985858;28;9575;-70
2023/01/08 21:15:49;;;;;;;;;1.75;1.75;;;;;;;;4981888;28;8819;-70
2023/01/08 21:18:14;;;;;;;;;7.50;2.00;;;;;;;;4990581;28;9828;-69
2023/01/08 21:20:40;;;;;;;;;2.25;2.25;;;;;;;;4991696;28;8814;-70
2023/01/08 21:23:05;;;;;;;;;2.00;2.00;;;;;;;;4992091;28;8943;-70
2023/01/08 21:25:33;;;;;;;;;5.50;3.50;;;;;;;;4982546;28;8812;-70
2023/01/08 21:27:59;;;;;;;;;4.25;2.25;;;;;;;;4974636;28;8825;-70
2023/01/08 21:30:24;;;;;;;;;4.00;3.00;;;;;;;;4991294;28;11936;-70
2023/01/08 21:32:49;;;;;;;;;2.25;2.00;;;;;;;;4993031;28;8813;-71
2023/01/08 21:35:14;;;;;;;;;2.00;2.00;;;;;;;;4989484;28;8828;-71
2023/01/08 21:37:40;;;;;;;;;1.50;1.50;;;;;;;;4993169;28;8791;-71
2023/01/08 21:40:05;;;;;;;;;2.00;2.00;;;;;;;;4985963;28;8840;-72
